Pekin, Illinois
Current Conditions -  °F | °C
As of 12:54 PM on Sunday 21 Dec 2014 (Local Time) from KPIA Reporting Station
Overcast Overcast  
Wind Chill: 32°   Ceiling: 2400
Heat Index: 40°   Visibility: 9mi
Dew Point: 31°   Wind: 15mph
Humidity: 70%   Direction: 170°S
Pressure: 30.08"   Gusts: 24mph
Location:  40.57°N, 89.64°W
Report Text: KPIA 211854Z 17013G21KT 9SM OVC024 04/M01 A3008 RMK AO2 SLP191 T00441006
Loading
Personal Weather Stations






























Interactive Weather Map New forecast layout! Learn more

10-Day Weather Forecast

Advertisements
Track Severe Weather on mobile